Time;durP1;ratioP1;P1;durP2;ratioP2;P2;SDS_P1;SDS_P2;PMS_P1;PMS_P2;Temp;Humidity;BMP_temperature;BMP_pressure;BME280_temperature;BME280_humidity;BME280_pressure;Samples;Min_cycle;Max_cycle;Signal;HPM_P1;HPM_P2
2024/01/15 00:02:06;;;;;;;;;38.50;32.75;;;;;;;;5035926;28;28390;-77
2024/01/15 00:04:36;;;;;;;;;35.75;31.25;;;;;;;;5032292;28;28406;-77
2024/01/15 00:07:01;;;;;;;;;37.25;34.75;;;;;;;;5032062;28;29375;-78
2024/01/15 00:09:27;;;;;;;;;51.50;36.75;;;;;;;;5029462;28;28961;-78
2024/01/15 00:11:52;;;;;;;;;35.00;29.75;;;;;;;;5034695;28;28658;-77
2024/01/15 00:14:20;;;;;;;;;51.00;38.00;;;;;;;;5025951;28;28710;-77
2024/01/15 00:16:45;;;;;;;;;44.25;34.25;;;;;;;;5039079;28;28484;-78
2024/01/15 00:19:10;;;;;;;;;33.50;29.00;;;;;;;;5030312;28;28489;-78
2024/01/15 00:21:35;;;;;;;;;41.00;35.25;;;;;;;;5046131;28;28375;-77
2024/01/15 00:24:00;;;;;;;;;49.50;37.75;;;;;;;;5036572;28;29215;-78
2024/01/15 00:26:26;;;;;;;;;52.25;37.50;;;;;;;;5029119;28;28392;-77
2024/01/15 00:28:51;;;;;;;;;37.25;31.50;;;;;;;;5037800;28;29010;-77
2024/01/15 00:31:17;;;;;;;;;45.00;34.75;;;;;;;;5038954;28;28599;-77
2024/01/15 00:33:42;;;;;;;;;41.75;34.50;;;;;;;;5035867;28;28909;-77
2024/01/15 00:36:07;;;;;;;;;36.50;31.50;;;;;;;;5033950;28;28810;-76
2024/01/15 00:38:33;;;;;;;;;43.25;34.75;;;;;;;;5032588;28;28750;-76
2024/01/15 00:40:58;;;;;;;;;44.50;32.75;;;;;;;;5038921;28;28507;-76
2024/01/15 00:43:23;;;;;;;;;38.75;35.00;;;;;;;;5031277;28;28631;-76
2024/01/15 00:45:48;;;;;;;;;37.50;34.25;;;;;;;;5031824;28;29302;-76
2024/01/15 00:48:13;;;;;;;;;38.50;32.25;;;;;;;;5032395;28;28515;-77
2024/01/15 00:50:39;;;;;;;;;48.75;36.75;;;;;;;;5037619;28;28540;-76
2024/01/15 00:53:04;;;;;;;;;41.75;31.50;;;;;;;;5028918;28;28554;-76
2024/01/15 00:55:29;;;;;;;;;35.25;31.50;;;;;;;;5036053;28;28756;-76
2024/01/15 00:57:55;;;;;;;;;47.50;36.00;;;;;;;;5030614;28;28940;-75
2024/01/15 01:00:20;;;;;;;;;33.75;29.75;;;;;;;;5031332;28;28589;-76
2024/01/15 01:02:45;;;;;;;;;39.50;32.25;;;;;;;;5025187;28;28595;-75
2024/01/15 01:05:10;;;;;;;;;41.00;34.25;;;;;;;;5030752;28;29299;-76
2024/01/15 01:07:36;;;;;;;;;39.00;31.75;;;;;;;;5029297;28;28887;-75
2024/01/15 01:10:01;;;;;;;;;38.25;32.25;;;;;;;;5030815;28;28805;-76
2024/01/15 01:12:26;;;;;;;;;39.50;33.75;;;;;;;;5031793;28;28984;-75
2024/01/15 01:14:51;;;;;;;;;43.50;34.00;;;;;;;;5032018;28;29062;-75
2024/01/15 01:17:17;;;;;;;;;33.00;27.75;;;;;;;;5021338;28;28791;-75
2024/01/15 01:19:42;;;;;;;;;36.50;31.00;;;;;;;;5023409;28;28973;-75
2024/01/15 01:22:08;;;;;;;;;38.25;30.50;;;;;;;;5036979;28;28573;-75
2024/01/15 01:24:33;;;;;;;;;43.75;31.75;;;;;;;;5028819;28;30725;-77
2024/01/15 01:26:58;;;;;;;;;43.00;35.25;;;;;;;;5036345;28;28528;-76
2024/01/15 01:29:24;;;;;;;;;37.00;30.00;;;;;;;;5027902;28;28797;-78
2024/01/15 01:31:49;;;;;;;;;37.75;32.50;;;;;;;;5028793;28;28469;-76
2024/01/15 01:34:15;;;;;;;;;45.00;34.00;;;;;;;;5027533;28;28895;-77
2024/01/15 01:36:40;;;;;;;;;42.50;30.50;;;;;;;;5034239;28;28744;-78
2024/01/15 01:39:05;;;;;;;;;37.00;30.00;;;;;;;;5027732;28;28511;-76
2024/01/15 01:41:31;;;;;;;;;42.00;32.75;;;;;;;;5023229;28;28016;-76
2024/01/15 01:43:56;;;;;;;;;42.25;31.50;;;;;;;;5029826;28;30713;-78
2024/01/15 01:46:22;;;;;;;;;38.25;33.50;;;;;;;;5030037;28;28585;-76
2024/01/15 01:48:47;;;;;;;;;31.50;26.25;;;;;;;;5030926;28;28859;-77
2024/01/15 01:51:13;;;;;;;;;37.50;33.00;;;;;;;;5037249;28;28440;-75
2024/01/15 01:53:38;;;;;;;;;43.00;31.75;;;;;;;;5034192;28;30310;-75
2024/01/15 01:56:04;;;;;;;;;41.00;32.50;;;;;;;;5041886;28;28761;-73
2024/01/15 01:58:29;;;;;;;;;32.75;27.50;;;;;;;;5031683;28;28635;-77
2024/01/15 02:00:55;;;;;;;;;41.50;31.75;;;;;;;;5032206;28;28646;-76
2024/01/15 02:03:20;;;;;;;;;33.25;27.00;;;;;;;;5022181;28;29906;-78
2024/01/15 02:05:48;;;;;;;;;29.00;26.25;;;;;;;;5036223;28;28709;-77
2024/01/15 02:08:13;;;;;;;;;44.00;31.25;;;;;;;;5042329;28;28557;-77
2024/01/15 02:10:38;;;;;;;;;31.00;25.50;;;;;;;;5046691;28;28552;-76
2024/01/15 02:13:04;;;;;;;;;43.00;33.75;;;;;;;;5034588;28;28623;-78
2024/01/15 02:15:29;;;;;;;;;33.75;25.75;;;;;;;;5031469;28;28763;-77
2024/01/15 02:18:01;;;;;;;;;37.00;31.50;;;;;;;;5038689;28;29643;-76
2024/01/15 02:20:27;;;;;;;;;41.00;26.75;;;;;;;;5030337;28;28958;-78
2024/01/15 02:22:52;;;;;;;;;38.00;31.00;;;;;;;;5028407;28;28930;-78
2024/01/15 02:25:18;;;;;;;;;30.75;28.00;;;;;;;;5022760;28;28513;-76
2024/01/15 02:27:43;;;;;;;;;33.00;31.75;;;;;;;;5041441;28;28881;-77
2024/01/15 02:30:11;;;;;;;;;29.75;25.75;;;;;;;;5030685;28;28528;-77
2024/01/15 02:32:36;;;;;;;;;35.25;26.50;;;;;;;;5033851;28;28899;-75
2024/01/15 02:35:01;;;;;;;;;31.50;27.50;;;;;;;;5032713;28;29072;-77
2024/01/15 02:37:26;;;;;;;;;37.25;32.00;;;;;;;;5036404;28;28685;-77
2024/01/15 02:39:51;;;;;;;;;29.75;27.25;;;;;;;;5025626;28;29457;-78
2024/01/15 02:42:17;;;;;;;;;36.25;34.00;;;;;;;;5027214;28;28520;-76
2024/01/15 02:44:42;;;;;;;;;34.75;27.25;;;;;;;;5037493;28;28695;-77
2024/01/15 02:47:07;;;;;;;;;28.50;26.50;;;;;;;;5022525;28;28494;-78
2024/01/15 02:49:32;;;;;;;;;42.25;35.25;;;;;;;;5030728;28;28609;-77
2024/01/15 02:51:57;;;;;;;;;34.50;27.50;;;;;;;;5024903;28;29765;-78
2024/01/15 02:54:23;;;;;;;;;32.25;29.75;;;;;;;;5027466;28;28810;-77
2024/01/15 02:56:48;;;;;;;;;41.25;31.75;;;;;;;;5028181;28;29178;-75
2024/01/15 02:59:13;;;;;;;;;31.00;26.25;;;;;;;;5045498;28;28401;-78
2024/01/15 03:01:38;;;;;;;;;32.00;26.50;;;;;;;;5034051;28;28849;-77
2024/01/15 03:04:03;;;;;;;;;29.75;26.75;;;;;;;;5029291;28;28546;-76
2024/01/15 03:06:29;;;;;;;;;32.00;25.25;;;;;;;;5029810;28;28536;-78
2024/01/15 03:08:54;;;;;;;;;36.50;30.25;;;;;;;;5042288;28;28952;-76
2024/01/15 03:11:19;;;;;;;;;30.25;27.75;;;;;;;;5032089;28;29748;-77
2024/01/15 03:13:44;;;;;;;;;37.75;30.50;;;;;;;;5034655;28;28523;-75
2024/01/15 03:16:10;;;;;;;;;45.50;33.00;;;;;;;;5031965;28;28880;-75
2024/01/15 03:18:35;;;;;;;;;33.00;30.00;;;;;;;;5034879;28;30759;-76
2024/01/15 03:21:01;;;;;;;;;35.50;24.50;;;;;;;;5031426;28;28922;-75
2024/01/15 03:23:26;;;;;;;;;37.00;27.25;;;;;;;;5019083;28;28484;-76
2024/01/15 03:25:52;;;;;;;;;32.50;29.00;;;;;;;;5027894;28;28477;-74
2024/01/15 03:28:17;;;;;;;;;27.00;23.50;;;;;;;;5025671;28;29014;-75
2024/01/15 03:30:42;;;;;;;;;25.75;25.75;;;;;;;;5035285;28;30009;-77
2024/01/15 03:33:07;;;;;;;;;34.75;27.75;;;;;;;;5032272;28;28926;-77
2024/01/15 03:35:32;;;;;;;;;26.00;19.00;;;;;;;;5035596;28;28480;-76
2024/01/15 03:37:58;;;;;;;;;30.00;25.50;;;;;;;;5028337;28;29343;-77
2024/01/15 03:40:23;;;;;;;;;33.25;26.25;;;;;;;;5031222;28;28646;-77
2024/01/15 03:42:48;;;;;;;;;34.75;26.50;;;;;;;;5026530;28;28898;-76
2024/01/15 03:45:13;;;;;;;;;32.00;27.00;;;;;;;;5016280;28;28486;-77
2024/01/15 03:47:39;;;;;;;;;25.00;23.25;;;;;;;;5023124;28;28976;-77
2024/01/15 03:50:05;;;;;;;;;30.25;27.25;;;;;;;;5035157;28;29459;-77
2024/01/15 03:52:30;;;;;;;;;26.00;22.00;;;;;;;;5033554;28;28733;-75
2024/01/15 03:54:55;;;;;;;;;33.25;25.00;;;;;;;;5032074;28;29097;-78
2024/01/15 03:57:20;;;;;;;;;32.25;24.50;;;;;;;;5024620;28;28837;-76
2024/01/15 03:59:47;;;;;;;;;27.50;23.00;;;;;;;;5025818;28;29642;-76
2024/01/15 04:02:12;;;;;;;;;27.75;23.50;;;;;;;;5024347;28;29183;-75
2024/01/15 04:04:40;;;;;;;;;33.25;27.75;;;;;;;;5022606;28;28484;-76
2024/01/15 04:07:05;;;;;;;;;28.25;25.50;;;;;;;;5024096;28;28659;-77
2024/01/15 04:09:30;;;;;;;;;30.25;24.00;;;;;;;;5024502;28;29110;-77
2024/01/15 04:11:56;;;;;;;;;30.25;25.50;;;;;;;;5036475;28;28434;-77
2024/01/15 04:14:21;;;;;;;;;31.50;27.75;;;;;;;;5021135;28;28904;-76
2024/01/15 04:16:46;;;;;;;;;27.00;24.25;;;;;;;;5033806;28;28518;-77
2024/01/15 04:19:11;;;;;;;;;27.75;24.75;;;;;;;;5035894;28;28504;-76
2024/01/15 04:21:36;;;;;;;;;28.75;28.25;;;;;;;;5042437;28;28541;-78
2024/01/15 04:24:02;;;;;;;;;32.75;23.25;;;;;;;;5026252;28;28556;-77
2024/01/15 04:26:27;;;;;;;;;27.25;23.25;;;;;;;;5025516;28;28850;-77
2024/01/15 04:28:52;;;;;;;;;27.25;22.25;;;;;;;;5030720;28;28801;-78
2024/01/15 04:31:23;;;;;;;;;25.00;25.00;;;;;;;;5035607;28;28918;-77
2024/01/15 04:33:48;;;;;;;;;27.33;21.33;;;;;;;;5032021;28;28944;-77
2024/01/15 04:36:13;;;;;;;;;5.33;2.00;;;;;;;;5031950;28;28816;-77
2024/01/15 04:38:39;;;;;;;;;29.75;24.00;;;;;;;;5034167;28;28557;-76
2024/01/15 04:41:04;;;;;;;;;23.67;20.00;;;;;;;;5036802;28;28591;-77
2024/01/15 04:43:29;;;;;;;;;29.25;27.25;;;;;;;;5043863;28;28576;-77
2024/01/15 04:45:55;;;;;;;;;33.00;22.00;;;;;;;;5042388;28;28874;-76
2024/01/15 04:48:20;;;;;;;;;25.75;21.00;;;;;;;;5032450;28;28625;-77
2024/01/15 04:50:46;;;;;;;;;28.50;24.00;;;;;;;;5043330;28;29043;-77
2024/01/15 04:53:11;;;;;;;;;34.75;24.75;;;;;;;;5039549;28;28655;-76
2024/01/15 04:55:36;;;;;;;;;28.25;21.75;;;;;;;;5044007;28;28552;-76
2024/01/15 04:58:02;;;;;;;;;28.00;23.25;;;;;;;;5037444;28;28634;-76
2024/01/15 05:00:27;;;;;;;;;25.25;19.25;;;;;;;;5038949;28;29077;-76
2024/01/15 05:02:52;;;;;;;;;21.75;19.00;;;;;;;;5031115;28;28793;-76
2024/01/15 05:05:17;;;;;;;;;23.00;20.00;;;;;;;;5032449;28;28800;-76
2024/01/15 05:07:42;;;;;;;;;26.25;22.00;;;;;;;;5032773;28;28552;-77
2024/01/15 05:10:08;;;;;;;;;26.75;20.25;;;;;;;;5040947;28;28409;-77
2024/01/15 05:12:33;;;;;;;;;27.25;21.50;;;;;;;;5032043;28;28758;-77
2024/01/15 05:14:58;;;;;;;;;19.67;19.67;;;;;;;;5033681;28;28474;-77
2024/01/15 05:17:24;;;;;;;;;23.75;20.00;;;;;;;;5026923;28;29845;-76
2024/01/15 05:19:49;;;;;;;;;28.25;22.75;;;;;;;;5033776;28;28528;-77
2024/01/15 05:22:14;;;;;;;;;25.75;22.25;;;;;;;;5038100;28;28600;-77
2024/01/15 05:24:39;;;;;;;;;18.50;12.50;;;;;;;;5029334;28;28903;-77
2024/01/15 05:27:05;;;;;;;;;33.00;23.75;;;;;;;;5048796;28;29781;-77
2024/01/15 05:29:30;;;;;;;;;25.00;20.50;;;;;;;;5035097;28;28678;-77
2024/01/15 05:31:55;;;;;;;;;20.00;18.75;;;;;;;;5025834;28;29153;-77
2024/01/15 05:34:20;;;;;;;;;24.00;19.50;;;;;;;;5027128;28;28379;-73
2024/01/15 05:36:47;;;;;;;;;29.75;23.00;;;;;;;;5035202;28;29580;-74
2024/01/15 05:39:12;;;;;;;;;26.50;18.75;;;;;;;;5028273;28;29261;-75
2024/01/15 05:41:38;;;;;;;;;25.33;21.00;;;;;;;;5027069;28;28598;-74
2024/01/15 05:44:03;;;;;;;;;27.33;18.67;;;;;;;;5026587;28;28557;-73
2024/01/15 05:46:28;;;;;;;;;22.75;19.25;;;;;;;;5026279;28;29602;-74
2024/01/15 05:48:54;;;;;;;;;21.75;18.25;;;;;;;;5025965;28;28566;-73
2024/01/15 05:51:19;;;;;;;;;26.25;19.75;;;;;;;;5022808;28;28407;-74
2024/01/15 05:53:44;;;;;;;;;21.33;18.00;;;;;;;;5030596;28;29167;-75
2024/01/15 05:56:10;;;;;;;;;21.33;20.00;;;;;;;;5026356;28;30930;-75
2024/01/15 05:58:35;;;;;;;;;26.75;17.75;;;;;;;;5027734;28;28588;-75
2024/01/15 06:01:00;;;;;;;;;17.50;14.75;;;;;;;;5027284;28;28559;-71
2024/01/15 06:03:25;;;;;;;;;26.75;20.25;;;;;;;;5027125;28;28648;-70
2024/01/15 06:05:51;;;;;;;;;21.75;20.25;;;;;;;;5025860;28;28539;-71
2024/01/15 06:08:16;;;;;;;;;22.67;18.33;;;;;;;;5030224;28;28563;-76
2024/01/15 06:10:41;;;;;;;;;25.25;21.25;;;;;;;;5025358;28;28478;-72
2024/01/15 06:13:06;;;;;;;;;20.00;16.25;;;;;;;;5031513;28;28561;-72
2024/01/15 06:15:31;;;;;;;;;25.67;18.33;;;;;;;;5024047;28;29244;-73
2024/01/15 06:17:57;;;;;;;;;29.00;22.00;;;;;;;;5028718;28;28571;-71
2024/01/15 06:20:22;;;;;;;;;22.67;14.67;;;;;;;;5033519;28;28564;-71
2024/01/15 06:22:47;;;;;;;;;23.00;19.75;;;;;;;;5028292;28;28968;-70
2024/01/15 06:25:12;;;;;;;;;21.33;18.00;;;;;;;;5024740;28;28678;-72
2024/01/15 06:27:38;;;;;;;;;24.33;18.00;;;;;;;;5019977;28;28858;-71
2024/01/15 06:30:03;;;;;;;;;24.00;17.50;;;;;;;;5025707;28;28591;-73
2024/01/15 06:32:28;;;;;;;;;22.67;18.00;;;;;;;;5017513;28;29211;-73
2024/01/15 06:34:54;;;;;;;;;25.33;19.00;;;;;;;;5040181;28;29339;-73
2024/01/15 06:37:20;;;;;;;;;17.00;17.00;;;;;;;;5038101;28;28460;-73
2024/01/15 06:39:45;;;;;;;;;21.67;14.00;;;;;;;;5035906;28;28592;-73
2024/01/15 06:42:10;;;;;;;;;19.00;17.00;;;;;;;;5029820;28;28560;-72
2024/01/15 06:44:36;;;;;;;;;26.33;19.33;;;;;;;;5030172;28;28795;-70
2024/01/15 06:47:02;;;;;;;;;20.00;15.00;;;;;;;;5027815;28;28485;-72
2024/01/15 06:49:30;;;;;;;;;22.00;18.00;;;;;;;;5028478;28;29067;-72
2024/01/15 06:51:55;;;;;;;;;22.00;16.67;;;;;;;;5030222;28;29094;-72
2024/01/15 06:54:21;;;;;;;;;23.00;17.67;;;;;;;;5037277;28;29277;-74
2024/01/15 06:56:46;;;;;;;;;23.67;21.00;;;;;;;;5032737;28;28523;-71
2024/01/15 06:59:11;;;;;;;;;19.00;19.00;;;;;;;;5025989;28;28813;-73
2024/01/15 07:01:37;;;;;;;;;23.67;20.00;;;;;;;;5023682;28;28971;-72
2024/01/15 07:04:03;;;;;;;;;26.00;22.33;;;;;;;;5027283;28;28475;-73
2024/01/15 07:06:28;;;;;;;;;26.33;20.00;;;;;;;;5019376;28;28517;-71
2024/01/15 07:08:53;;;;;;;;;31.33;21.00;;;;;;;;5028165;28;28600;-70
2024/01/15 07:11:18;;;;;;;;;26.00;22.33;;;;;;;;5031745;28;28663;-71
2024/01/15 07:13:44;;;;;;;;;43.25;34.25;;;;;;;;5024572;28;28525;-72
2024/01/15 07:16:09;;;;;;;;;26.50;25.50;;;;;;;;5027415;28;28484;-71
2024/01/15 07:18:34;;;;;;;;;26.50;24.75;;;;;;;;5035491;28;28603;-71
2024/01/15 07:21:01;;;;;;;;;31.50;21.00;;;;;;;;5033141;28;29051;-72
2024/01/15 07:23:26;;;;;;;;;29.25;24.50;;;;;;;;5032742;28;28898;-72
2024/01/15 07:25:51;;;;;;;;;23.67;22.00;;;;;;;;5042265;28;28554;-71
2024/01/15 07:28:16;;;;;;;;;27.25;21.75;;;;;;;;5018452;28;28706;-73
2024/01/15 07:30:42;;;;;;;;;27.25;25.25;;;;;;;;5041019;28;28568;-72
2024/01/15 07:33:07;;;;;;;;;28.75;21.25;;;;;;;;5022672;28;28553;-72
2024/01/15 07:35:33;;;;;;;;;32.25;29.00;;;;;;;;5027171;28;28874;-72
2024/01/15 07:37:58;;;;;;;;;29.50;26.25;;;;;;;;5029379;28;28838;-72
2024/01/15 07:40:24;;;;;;;;;27.75;23.00;;;;;;;;5035991;28;28444;-72
2024/01/15 07:42:49;;;;;;;;;33.50;23.75;;;;;;;;5024062;28;30114;-72
2024/01/15 07:45:15;;;;;;;;;32.00;27.75;;;;;;;;5041392;28;29281;-73
2024/01/15 07:47:40;;;;;;;;;33.00;27.50;;;;;;;;5038775;28;29181;-73
2024/01/15 07:50:05;;;;;;;;;28.00;23.75;;;;;;;;5024650;28;29193;-73
2024/01/15 07:52:31;;;;;;;;;37.75;30.00;;;;;;;;5041459;28;29763;-71
2024/01/15 07:54:56;;;;;;;;;36.00;27.25;;;;;;;;5024472;28;28497;-72
2024/01/15 07:57:22;;;;;;;;;27.75;23.00;;;;;;;;5026528;28;28572;-73
2024/01/15 07:59:47;;;;;;;;;29.75;25.00;;;;;;;;5036505;28;28973;-71
2024/01/15 08:02:13;;;;;;;;;28.00;21.67;;;;;;;;5028577;28;29261;-71
2024/01/15 08:04:38;;;;;;;;;31.50;26.75;;;;;;;;5028204;28;28964;-71
2024/01/15 08:07:06;;;;;;;;;30.75;26.25;;;;;;;;5029965;28;29863;-72
2024/01/15 08:09:32;;;;;;;;;34.00;27.50;;;;;;;;5034655;28;29419;-71
2024/01/15 08:11:57;;;;;;;;;29.50;27.75;;;;;;;;5037341;28;29931;-72
2024/01/15 08:14:22;;;;;;;;;25.75;24.50;;;;;;;;5031562;28;28816;-72
2024/01/15 08:16:47;;;;;;;;;29.75;25.50;;;;;;;;5031648;28;28947;-72
2024/01/15 08:19:14;;;;;;;;;33.00;29.00;;;;;;;;5038594;28;28842;-72
2024/01/15 08:21:39;;;;;;;;;30.50;25.25;;;;;;;;5028442;28;28532;-72
2024/01/15 08:24:04;;;;;;;;;32.00;26.25;;;;;;;;5030407;28;28548;-70
2024/01/15 08:26:29;;;;;;;;;28.00;22.75;;;;;;;;5030921;28;29034;-73
2024/01/15 08:28:55;;;;;;;;;31.25;29.25;;;;;;;;5024287;28;28792;-72
2024/01/15 08:31:20;;;;;;;;;44.75;29.25;;;;;;;;5032265;28;31005;-72
2024/01/15 08:33:45;;;;;;;;;33.25;28.25;;;;;;;;5026047;28;28662;-71
2024/01/15 08:36:11;;;;;;;;;35.00;30.00;;;;;;;;5029686;28;28575;-70
2024/01/15 08:38:36;;;;;;;;;31.75;31.00;;;;;;;;5034284;28;28853;-71
2024/01/15 08:41:01;;;;;;;;;36.50;27.75;;;;;;;;5032067;28;30369;-69
2024/01/15 08:43:27;;;;;;;;;35.00;27.50;;;;;;;;5044515;28;28500;-69
2024/01/15 08:45:52;;;;;;;;;39.00;32.00;;;;;;;;5041319;28;28503;-70
2024/01/15 08:48:18;;;;;;;;;29.50;27.50;;;;;;;;5045787;28;28524;-71
2024/01/15 08:50:45;;;;;;;;;30.50;27.50;;;;;;;;5031704;28;28875;-70
2024/01/15 08:53:11;;;;;;;;;26.00;26.00;;;;;;;;5030553;28;28521;-69
2024/01/15 08:55:36;;;;;;;;;36.50;29.00;;;;;;;;5041914;28;28842;-71
2024/01/15 08:58:03;;;;;;;;;24.00;21.25;;;;;;;;5030275;28;28637;-70
2024/01/15 09:00:28;;;;;;;;;31.75;26.50;;;;;;;;5033648;28;28446;-70
2024/01/15 09:02:53;;;;;;;;;33.75;28.75;;;;;;;;5034719;28;28421;-70
2024/01/15 09:05:18;;;;;;;;;33.75;30.25;;;;;;;;5037429;28;28743;-70
2024/01/15 09:07:45;;;;;;;;;31.25;26.75;;;;;;;;5032931;28;28776;-70
2024/01/15 09:10:11;;;;;;;;;26.00;25.75;;;;;;;;5047072;28;28499;-71
2024/01/15 09:12:36;;;;;;;;;32.00;27.25;;;;;;;;5044133;28;28562;-71
2024/01/15 09:15:04;;;;;;;;;44.75;34.75;;;;;;;;5042700;28;28907;-70
2024/01/15 09:17:29;;;;;;;;;37.75;27.50;;;;;;;;5059770;28;28621;-70
2024/01/15 09:19:54;;;;;;;;;24.25;22.75;;;;;;;;5047306;28;29873;-73
2024/01/15 09:22:19;;;;;;;;;36.25;28.00;;;;;;;;5047066;28;28575;-71
2024/01/15 09:24:45;;;;;;;;;30.50;24.00;;;;;;;;5044957;28;28467;-70
2024/01/15 09:27:11;;;;;;;;;36.75;29.75;;;;;;;;5031028;28;28774;-71
2024/01/15 09:29:39;;;;;;;;;39.25;33.75;;;;;;;;5030495;28;28474;-70
2024/01/15 09:32:05;;;;;;;;;40.75;31.50;;;;;;;;5030955;28;28557;-74
2024/01/15 09:34:30;;;;;;;;;40.50;32.75;;;;;;;;5030686;28;28501;-71
2024/01/15 09:36:55;;;;;;;;;31.00;25.50;;;;;;;;5027498;28;28529;-71
2024/01/15 09:39:21;;;;;;;;;32.00;26.75;;;;;;;;5045833;28;30048;-70
2024/01/15 09:41:47;;;;;;;;;25.67;20.33;;;;;;;;5032732;28;28632;-70
2024/01/15 09:44:13;;;;;;;;;25.00;22.00;;;;;;;;5037258;28;28528;-70
2024/01/15 09:46:39;;;;;;;;;23.00;21.33;;;;;;;;5031164;28;28595;-71
2024/01/15 09:49:05;;;;;;;;;33.33;28.33;;;;;;;;5033459;28;29733;-72
2024/01/15 09:51:31;;;;;;;;;24.67;21.00;;;;;;;;5027442;28;28454;-68
2024/01/15 09:53:57;;;;;;;;;25.33;21.67;;;;;;;;5027907;28;28765;-70
2024/01/15 09:56:22;;;;;;;;;18.33;17.00;;;;;;;;5023744;28;28527;-70
2024/01/15 09:58:48;;;;;;;;;23.67;19.00;;;;;;;;5032622;28;28966;-70
2024/01/15 10:01:15;;;;;;;;;18.67;17.67;;;;;;;;5029271;28;28538;-70
2024/01/15 10:03:40;;;;;;;;;28.33;23.33;;;;;;;;5027813;28;28398;-70
2024/01/15 10:06:07;;;;;;;;;22.00;17.67;;;;;;;;5036550;28;28755;-69
2024/01/15 10:08:34;;;;;;;;;31.33;25.67;;;;;;;;5042438;28;30126;-71
2024/01/15 10:10:59;;;;;;;;;24.00;23.00;;;;;;;;5039023;28;28568;-70
2024/01/15 10:13:25;;;;;;;;;23.00;17.67;;;;;;;;5043463;28;28723;-70
2024/01/15 10:15:51;;;;;;;;;30.33;25.00;;;;;;;;5038032;28;28554;-70
2024/01/15 10:18:16;;;;;;;;;16.67;16.67;;;;;;;;5043326;28;28862;-72
2024/01/15 10:20:42;;;;;;;;;18.00;14.00;;;;;;;;5039239;28;28549;-69
2024/01/15 10:23:07;;;;;;;;;18.67;16.67;;;;;;;;5044035;28;28755;-72
2024/01/15 10:25:33;;;;;;;;;18.33;17.33;;;;;;;;5030672;28;28913;-70
2024/01/15 10:28:02;;;;;;;;;15.67;15.00;;;;;;;;5047027;28;30778;-72
2024/01/15 10:30:27;;;;;;;;;13.67;12.00;;;;;;;;5032366;28;28508;-69
2024/01/15 10:33:03;;;;;;;;;17.67;14.33;;;;;;;;5042069;28;28720;-68
2024/01/15 10:35:28;;;;;;;;;16.00;10.67;;;;;;;;5032131;28;28927;-69
2024/01/15 10:37:54;;;;;;;;;9.00;9.00;;;;;;;;5040152;28;28911;-70
2024/01/15 10:40:19;;;;;;;;;9.67;9.67;;;;;;;;5035684;28;28789;-70
2024/01/15 10:42:46;;;;;;;;;18.67;16.33;;;;;;;;5044845;28;28844;-71
2024/01/15 10:45:12;;;;;;;;;12.67;10.33;;;;;;;;5010058;28;28633;-71
2024/01/15 10:47:37;;;;;;;;;5.00;5.00;;;;;;;;5029954;28;28407;-71
2024/01/15 10:50:03;;;;;;;;;8.00;5.33;;;;;;;;5030943;28;28394;-71
2024/01/15 10:52:29;;;;;;;;;5.00;4.00;;;;;;;;5030851;28;28465;-71
2024/01/15 10:54:54;;;;;;;;;5.33;4.00;;;;;;;;5031203;28;28582;-72
2024/01/15 10:57:21;;;;;;;;;6.33;4.67;;;;;;;;5028401;28;28692;-70
2024/01/15 10:59:46;;;;;;;;;3.67;3.67;;;;;;;;5026847;28;28545;-70
2024/01/15 11:02:14;;;;;;;;;6.67;6.67;;;;;;;;5027083;28;28604;-69
2024/01/15 11:04:39;;;;;;;;;3.33;2.00;;;;;;;;5024609;28;30405;-71
2024/01/15 11:07:05;;;;;;;;;7.00;3.33;;;;;;;;5032269;28;29819;-72
2024/01/15 11:09:30;;;;;;;;;1.67;1.67;;;;;;;;5030770;28;28969;-72
2024/01/15 11:12:12;;;;;;;;;2.33;2.33;;;;;;;;5041339;28;28469;-73
2024/01/15 11:14:40;;;;;;;;;5.67;4.67;;;;;;;;5033574;28;28616;-72
2024/01/15 11:17:06;;;;;;;;;2.33;2.00;;;;;;;;5035979;28;29752;-72
2024/01/15 11:19:39;;;;;;;;;3.67;2.00;;;;;;;;5039285;28;28596;-70
2024/01/15 11:22:05;;;;;;;;;4.00;2.00;;;;;;;;5028174;28;28700;-70
2024/01/15 11:24:36;;;;;;;;;5.00;2.33;;;;;;;;5036833;28;28522;-74
2024/01/15 11:27:01;;;;;;;;;4.00;3.00;;;;;;;;5037529;28;28831;-73
2024/01/15 11:29:26;;;;;;;;;9.33;7.00;;;;;;;;5026744;28;28536;-70
2024/01/15 11:31:55;;;;;;;;;4.33;3.67;;;;;;;;5038151;28;28742;-72
2024/01/15 11:34:20;;;;;;;;;3.00;2.00;;;;;;;;5042489;28;28947;-72
2024/01/15 11:36:45;;;;;;;;;4.00;2.67;;;;;;;;5021748;28;29767;-71
2024/01/15 11:39:30;;;;;;;;;3.00;2.00;;;;;;;;5029023;28;28817;-71
2024/01/15 11:41:56;;;;;;;;;3.33;2.00;;;;;;;;5039020;28;28660;-73
2024/01/15 11:44:21;;;;;;;;;3.00;2.00;;;;;;;;5038340;28;28909;-72
2024/01/15 11:46:55;;;;;;;;;1.33;1.33;;;;;;;;5038541;28;28595;-71
2024/01/15 11:49:28;;;;;;;;;3.00;2.00;;;;;;;;5039357;28;28683;-72
2024/01/15 11:51:55;;;;;;;;;3.00;3.00;;;;;;;;5030637;28;28955;-70
2024/01/15 11:54:22;;;;;;;;;1.00;1.00;;;;;;;;5011916;28;29020;-70
2024/01/15 11:56:48;;;;;;;;;3.67;3.00;;;;;;;;5046229;28;28571;-73
2024/01/15 11:59:13;;;;;;;;;3.00;3.00;;;;;;;;5033054;28;28669;-70
2024/01/15 12:01:39;;;;;;;;;5.00;5.00;;;;;;;;5021345;28;28498;-71
2024/01/15 12:04:04;;;;;;;;;5.67;3.67;;;;;;;;5037204;28;28562;-70
2024/01/15 12:06:29;;;;;;;;;2.00;2.00;;;;;;;;5035043;28;28580;-70
2024/01/15 12:09:07;;;;;;;;;4.33;4.33;;;;;;;;5034573;28;28642;-70
2024/01/15 12:11:35;;;;;;;;;3.00;2.00;;;;;;;;5023193;28;28713;-70
2024/01/15 12:14:01;;;;;;;;;1.67;1.67;;;;;;;;5017505;28;28830;-71
2024/01/15 12:16:26;;;;;;;;;0.33;0.33;;;;;;;;5036210;28;28550;-70
2024/01/15 12:18:51;;;;;;;;;2.00;1.00;;;;;;;;5033481;28;28486;-74
2024/01/15 12:21:16;;;;;;;;;3.00;2.00;;;;;;;;5038524;28;28521;-72
2024/01/15 12:23:42;;;;;;;;;1.00;1.00;;;;;;;;5028019;28;28494;-76
2024/01/15 12:26:07;;;;;;;;;2.67;2.00;;;;;;;;5027390;28;29012;-71
2024/01/15 12:28:32;;;;;;;;;1.00;1.00;;;;;;;;5026556;28;28806;-73
2024/01/15 12:31:00;;;;;;;;;1.00;1.00;;;;;;;;5029372;28;28855;-73
2024/01/15 12:33:25;;;;;;;;;2.33;1.00;;;;;;;;5030131;28;28659;-74
2024/01/15 12:35:53;;;;;;;;;6.33;4.00;;;;;;;;5027218;28;28488;-72
2024/01/15 12:38:19;;;;;;;;;5.00;4.00;;;;;;;;5035030;28;28493;-73
2024/01/15 12:40:48;;;;;;;;;3.00;3.00;;;;;;;;5035255;28;28917;-76
2024/01/15 12:43:13;;;;;;;;;3.33;3.00;;;;;;;;5028248;28;28508;-72
2024/01/15 12:45:38;;;;;;;;;2.67;2.00;;;;;;;;5040394;28;28419;-72
2024/01/15 12:48:04;;;;;;;;;3.33;2.33;;;;;;;;5021385;28;28717;-72
2024/01/15 12:50:29;;;;;;;;;4.00;2.00;;;;;;;;5029566;28;28883;-72
2024/01/15 12:52:54;;;;;;;;;2.33;1.00;;;;;;;;5031243;28;29496;-72
2024/01/15 12:55:20;;;;;;;;;2.00;1.33;;;;;;;;5034059;28;29197;-71
2024/01/15 12:57:45;;;;;;;;;2.67;2.00;;;;;;;;5022704;28;28478;-71
2024/01/15 13:00:12;;;;;;;;;1.00;1.00;;;;;;;;5034573;28;28898;-72
2024/01/15 13:02:37;;;;;;;;;3.67;2.00;;;;;;;;5035452;28;28909;-72
2024/01/15 13:05:07;;;;;;;;;1.67;1.67;;;;;;;;5035499;28;29941;-71
2024/01/15 13:07:32;;;;;;;;;3.67;3.00;;;;;;;;5038581;28;28905;-72
2024/01/15 13:09:57;;;;;;;;;3.00;3.00;;;;;;;;5032961;28;28759;-72
2024/01/15 13:12:22;;;;;;;;;2.33;1.00;;;;;;;;5028549;28;29067;-73
2024/01/15 13:14:48;;;;;;;;;5.33;3.00;;;;;;;;5029754;28;29012;-73
2024/01/15 13:17:16;;;;;;;;;1.00;1.00;;;;;;;;5027228;28;28857;-71
2024/01/15 13:19:41;;;;;;;;;1.00;1.00;;;;;;;;5030722;28;28582;-71
2024/01/15 13:22:09;;;;;;;;;1.67;1.33;;;;;;;;5039438;28;28910;-72
2024/01/15 13:24:35;;;;;;;;;2.00;1.00;;;;;;;;5020914;28;28674;-71
2024/01/15 13:27:01;;;;;;;;;1.67;1.67;;;;;;;;5048193;28;28660;-74
2024/01/15 13:29:26;;;;;;;;;1.00;1.00;;;;;;;;5041720;28;28447;-72
2024/01/15 13:31:51;;;;;;;;;1.00;1.00;;;;;;;;5044324;28;28449;-72
2024/01/15 13:34:16;;;;;;;;;1.33;1.33;;;;;;;;5042666;28;30134;-72
2024/01/15 13:36:42;;;;;;;;;1.00;1.00;;;;;;;;5038821;28;28500;-71
2024/01/15 13:39:08;;;;;;;;;0.33;0.00;;;;;;;;5042165;28;28429;-74
2024/01/15 13:41:34;;;;;;;;;1.67;1.67;;;;;;;;5045014;28;28701;-72
2024/01/15 13:43:59;;;;;;;;;1.00;0.00;;;;;;;;5030922;28;29182;-72
2024/01/15 13:46:26;;;;;;;;;1.00;0.00;;;;;;;;5046317;28;28434;-71
2024/01/15 13:48:51;;;;;;;;;4.00;2.33;;;;;;;;5044016;28;28563;-71
2024/01/15 13:51:17;;;;;;;;;4.67;3.33;;;;;;;;5047686;28;28553;-72
2024/01/15 13:53:42;;;;;;;;;2.00;2.00;;;;;;;;5032345;28;29114;-72
2024/01/15 13:56:10;;;;;;;;;2.00;1.00;;;;;;;;5034523;28;28576;-71
2024/01/15 13:58:35;;;;;;;;;2.00;2.00;;;;;;;;5040600;28;28506;-72
2024/01/15 14:01:01;;;;;;;;;2.00;1.00;;;;;;;;5038076;28;28904;-72
2024/01/15 14:03:26;;;;;;;;;3.33;2.00;;;;;;;;5027277;28;28481;-73
2024/01/15 14:05:51;;;;;;;;;3.00;1.67;;;;;;;;5031356;28;29060;-75
2024/01/15 14:08:17;;;;;;;;;4.67;3.33;;;;;;;;5032939;28;28784;-71
2024/01/15 14:10:42;;;;;;;;;2.00;2.00;;;;;;;;5017000;28;29615;-73
2024/01/15 14:13:08;;;;;;;;;3.00;2.00;;;;;;;;5045585;28;31398;-73
2024/01/15 14:15:33;;;;;;;;;3.33;1.33;;;;;;;;5036170;28;28484;-74